Time;durP1;ratioP1;P1;durP2;ratioP2;P2;SDS_P1;SDS_P2;PMS_P1;PMS_P2;Temp;Humidity;BMP_temperature;BMP_pressure;BME280_temperature;BME280_humidity;BME280_pressure;Samples;Min_cycle;Max_cycle;Signal;HPM_P1;HPM_P2
2021/09/04 00:00:26;;;;;;;13.47;9.83;;;;;;;;;;5105309;28;20055;-59
2021/09/04 00:02:53;;;;;;;11.80;9.60;;;;;;;;;;5094673;28;20032;-59
2021/09/04 00:05:20;;;;;;;11.33;9.13;;;;;;;;;;5090534;28;20028;-62
2021/09/04 00:07:47;;;;;;;11.37;9.73;;;;;;;;;;5089782;28;20382;-62
2021/09/04 00:10:14;;;;;;;12.97;9.43;;;;;;;;;;5100403;28;20034;-59
2021/09/04 00:12:41;;;;;;;11.13;8.93;;;;;;;;;;5109869;28;20497;-59
2021/09/04 00:15:08;;;;;;;14.43;10.00;;;;;;;;;;5113159;28;20038;-61
2021/09/04 00:17:34;;;;;;;10.33;8.53;;;;;;;;;;5114383;28;20016;-60
2021/09/04 00:20:01;;;;;;;9.67;8.13;;;;;;;;;;5112739;28;20026;-59
2021/09/04 00:22:28;;;;;;;9.53;7.87;;;;;;;;;;5114869;28;20428;-60
2021/09/04 00:24:55;;;;;;;12.83;9.93;;;;;;;;;;5114718;28;20024;-60
2021/09/04 00:27:22;;;;;;;13.33;9.97;;;;;;;;;;5111218;28;20097;-60
2021/09/04 00:29:48;;;;;;;11.17;9.27;;;;;;;;;;5109168;28;20058;-60
2021/09/04 00:32:15;;;;;;;11.47;8.43;;;;;;;;;;5109685;28;20063;-59
2021/09/04 00:34:42;;;;;;;11.93;9.23;;;;;;;;;;5102387;28;20081;-60
2021/09/04 00:37:09;;;;;;;13.70;8.93;;;;;;;;;;5091515;28;20020;-63
2021/09/04 00:39:36;;;;;;;13.67;9.67;;;;;;;;;;5094027;28;20114;-63
2021/09/04 00:42:02;;;;;;;12.43;9.50;;;;;;;;;;5094113;28;20032;-61
2021/09/04 00:44:30;;;;;;;12.57;8.40;;;;;;;;;;5097670;28;20038;-61
2021/09/04 00:47:07;;;;;;;13.97;8.63;;;;;;;;;;5114285;28;20053;-61
2021/09/04 00:49:34;;;;;;;11.30;9.33;;;;;;;;;;5105763;28;20055;-60
2021/09/04 00:52:02;;;;;;;12.07;9.23;;;;;;;;;;5088314;28;20024;-60
2021/09/04 00:54:29;;;;;;;11.93;9.40;;;;;;;;;;5088787;28;20446;-61
2021/09/04 00:56:56;;;;;;;13.90;10.40;;;;;;;;;;5089158;28;20109;-61
2021/09/04 00:59:23;;;;;;;11.77;9.30;;;;;;;;;;5093342;28;20027;-60
2021/09/04 01:01:50;;;;;;;12.17;9.53;;;;;;;;;;5114091;28;20034;-60
2021/09/04 01:04:17;;;;;;;12.03;9.37;;;;;;;;;;5113988;28;20015;-58
2021/09/04 01:06:44;;;;;;;14.40;9.93;;;;;;;;;;5113929;28;20466;-58
2021/09/04 01:09:11;;;;;;;12.97;9.30;;;;;;;;;;5112143;28;20027;-58
2021/09/04 01:11:38;;;;;;;12.00;8.27;;;;;;;;;;5091155;28;20109;-59
2021/09/04 01:14:04;;;;;;;12.10;9.33;;;;;;;;;;5088615;28;20028;-57
2021/09/04 01:16:38;;;;;;;12.70;9.43;;;;;;;;;;5088389;28;20040;-58
2021/09/04 01:19:05;;;;;;;13.50;8.60;;;;;;;;;;5088431;28;20027;-58
2021/09/04 01:21:33;;;;;;;12.97;9.10;;;;;;;;;;5108314;28;20019;-58
2021/09/04 01:24:03;;;;;;;12.27;7.80;;;;;;;;;;5113038;28;20038;-58
2021/09/04 01:26:30;;;;;;;11.97;9.00;;;;;;;;;;5113194;28;20023;-58
2021/09/04 01:28:58;;;;;;;14.20;8.50;;;;;;;;;;5113326;28;20076;-58
2021/09/04 01:31:25;;;;;;;14.17;9.07;;;;;;;;;;5100048;28;20028;-58
2021/09/04 01:33:52;;;;;;;13.13;9.20;;;;;;;;;;5091033;28;20082;-59
2021/09/04 01:36:28;;;;;;;14.43;9.90;;;;;;;;;;5087990;28;20059;-58
2021/09/04 01:38:55;;;;;;;11.47;8.63;;;;;;;;;;5088081;28;20016;-58
2021/09/04 01:41:22;;;;;;;11.10;8.90;;;;;;;;;;5088520;28;20112;-58
2021/09/04 01:43:49;;;;;;;15.60;8.70;;;;;;;;;;5089020;28;20128;-58
2021/09/04 01:46:16;;;;;;;15.73;9.87;;;;;;;;;;5092878;28;20031;-58
2021/09/04 01:48:42;;;;;;;14.97;9.13;;;;;;;;;;5092896;28;20028;-58
2021/09/04 01:51:09;;;;;;;15.07;8.10;;;;;;;;;;5103873;28;20034;-58
2021/09/04 01:53:36;;;;;;;11.13;8.23;;;;;;;;;;5113042;28;20020;-58
2021/09/04 01:56:03;;;;;;;11.27;8.50;;;;;;;;;;5111998;28;20059;-58
2021/09/04 01:58:30;;;;;;;10.57;8.27;;;;;;;;;;5107694;28;20020;-58
2021/09/04 02:00:56;;;;;;;12.20;9.20;;;;;;;;;;5103918;28;20077;-58
2021/09/04 02:03:23;;;;;;;10.70;8.40;;;;;;;;;;5108056;28;20031;-58
2021/09/04 02:05:50;;;;;;;10.27;7.83;;;;;;;;;;5108227;28;20032;-58
2021/09/04 02:08:17;;;;;;;12.30;8.73;;;;;;;;;;5112957;28;20027;-58
2021/09/04 02:10:43;;;;;;;12.00;7.80;;;;;;;;;;5111149;28;20017;-58
2021/09/04 02:13:10;;;;;;;11.40;7.97;;;;;;;;;;5112365;28;20024;-59
2021/09/04 02:15:37;;;;;;;13.10;8.37;;;;;;;;;;5112313;28;20032;-58
2021/09/04 02:18:04;;;;;;;10.97;8.10;;;;;;;;;;5112348;28;20466;-58
2021/09/04 02:20:31;;;;;;;12.53;9.20;;;;;;;;;;5097803;28;20493;-58
2021/09/04 02:22:57;;;;;;;14.17;8.50;;;;;;;;;;5107749;28;20047;-58
2021/09/04 02:25:24;;;;;;;11.07;7.97;;;;;;;;;;5107427;28;20110;-58
2021/09/04 02:27:51;;;;;;;9.53;7.63;;;;;;;;;;5107549;28;20038;-58
2021/09/04 02:30:18;;;;;;;12.13;6.97;;;;;;;;;;5112240;28;20110;-58
2021/09/04 02:32:44;;;;;;;11.63;8.50;;;;;;;;;;5092708;28;20031;-59
2021/09/04 02:35:12;;;;;;;10.63;8.10;;;;;;;;;;5092148;28;20025;-58
2021/09/04 02:37:38;;;;;;;9.93;8.03;;;;;;;;;;5094700;28;20024;-58
2021/09/04 02:40:06;;;;;;;9.03;7.13;;;;;;;;;;5096149;28;20020;-58
2021/09/04 02:42:33;;;;;;;13.57;8.63;;;;;;;;;;5108971;28;20031;-58
2021/09/04 02:45:00;;;;;;;14.50;10.00;;;;;;;;;;5111429;28;20019;-58
2021/09/04 02:47:27;;;;;;;11.33;8.80;;;;;;;;;;5111502;28;20473;-58
2021/09/04 02:49:54;;;;;;;11.93;9.10;;;;;;;;;;5111326;28;20098;-58
2021/09/04 02:52:20;;;;;;;13.93;8.07;;;;;;;;;;5113168;28;20036;-58
2021/09/04 02:54:47;;;;;;;10.97;8.03;;;;;;;;;;5115799;28;20031;-58
2021/09/04 02:57:14;;;;;;;15.67;9.63;;;;;;;;;;5116511;28;20023;-58
2021/09/04 02:59:41;;;;;;;11.73;9.00;;;;;;;;;;5116461;28;20030;-58
2021/09/04 03:02:07;;;;;;;12.03;8.40;;;;;;;;;;5114567;28;20024;-58
2021/09/04 03:04:34;;;;;;;10.67;8.10;;;;;;;;;;5112227;28;20088;-58
2021/09/04 03:07:01;;;;;;;11.17;8.87;;;;;;;;;;5111003;28;20546;-58
2021/09/04 03:09:28;;;;;;;12.63;8.80;;;;;;;;;;5110794;28;20134;-58
2021/09/04 03:11:54;;;;;;;13.27;9.67;;;;;;;;;;5109305;28;20470;-58
2021/09/04 03:14:21;;;;;;;14.23;8.73;;;;;;;;;;5113170;28;20486;-58
2021/09/04 03:16:48;;;;;;;10.23;8.20;;;;;;;;;;5113982;28;20047;-58
2021/09/04 03:19:15;;;;;;;14.57;9.03;;;;;;;;;;5115927;28;20502;-58
2021/09/04 03:21:42;;;;;;;11.90;8.37;;;;;;;;;;5115171;28;20505;-58
2021/09/04 03:24:08;;;;;;;11.40;8.37;;;;;;;;;;5115989;28;20023;-58
2021/09/04 03:26:35;;;;;;;10.93;8.20;;;;;;;;;;5112998;28;20420;-58
2021/09/04 03:29:02;;;;;;;11.50;8.60;;;;;;;;;;5110427;28;20486;-58
2021/09/04 03:31:28;;;;;;;11.17;7.83;;;;;;;;;;5102787;28;20425;-58
2021/09/04 03:33:55;;;;;;;9.40;7.43;;;;;;;;;;5090147;28;20493;-59
2021/09/04 03:36:22;;;;;;;15.90;8.33;;;;;;;;;;5091876;28;20028;-61
2021/09/04 03:38:49;;;;;;;9.73;7.43;;;;;;;;;;5095263;28;20024;-61
2021/09/04 03:41:16;;;;;;;10.67;7.47;;;;;;;;;;5099091;28;20020;-57
2021/09/04 03:43:42;;;;;;;12.77;8.27;;;;;;;;;;5113491;28;20023;-59
2021/09/04 03:46:10;;;;;;;10.97;7.70;;;;;;;;;;5110862;28;20031;-58
2021/09/04 03:48:36;;;;;;;10.83;7.50;;;;;;;;;;5092478;28;20020;-59
2021/09/04 03:51:04;;;;;;;10.10;7.87;;;;;;;;;;5089768;28;20466;-58
2021/09/04 03:53:31;;;;;;;11.77;7.90;;;;;;;;;;5089823;28;20031;-59
2021/09/04 03:55:57;;;;;;;10.53;7.67;;;;;;;;;;5090490;28;20032;-59
2021/09/04 03:58:24;;;;;;;14.77;8.33;;;;;;;;;;5111203;28;20032;-58
2021/09/04 04:00:51;;;;;;;11.97;8.10;;;;;;;;;;5114897;28;20031;-59
2021/09/04 04:03:18;;;;;;;16.33;8.13;;;;;;;;;;5115179;28;20037;-59
2021/09/04 04:05:44;;;;;;;20.43;9.97;;;;;;;;;;5115013;28;20028;-58
2021/09/04 04:08:11;;;;;;;14.20;8.73;;;;;;;;;;5094668;28;20058;-58
2021/09/04 04:10:38;;;;;;;11.23;8.13;;;;;;;;;;5093477;28;20031;-58
2021/09/04 04:13:05;;;;;;;10.27;7.60;;;;;;;;;;5097882;28;20574;-58
2021/09/04 04:15:31;;;;;;;14.47;9.57;;;;;;;;;;5109631;28;20039;-59
2021/09/04 04:17:58;;;;;;;10.97;7.60;;;;;;;;;;5109466;28;20028;-59
2021/09/04 04:20:25;;;;;;;8.67;6.47;;;;;;;;;;5099913;28;20370;-58
2021/09/04 04:22:52;;;;;;;11.07;7.80;;;;;;;;;;5100388;28;20155;-60
2021/09/04 04:25:18;;;;;;;10.13;7.17;;;;;;;;;;5100160;28;20032;-59
2021/09/04 04:27:45;;;;;;;10.33;7.83;;;;;;;;;;5100282;28;20080;-59
2021/09/04 04:30:12;;;;;;;13.10;8.37;;;;;;;;;;5114456;28;20032;-60
2021/09/04 04:32:39;;;;;;;11.87;7.73;;;;;;;;;;5114366;28;20046;-59
2021/09/04 04:35:06;;;;;;;9.97;6.67;;;;;;;;;;5109094;28;20036;-60
2021/09/04 04:37:32;;;;;;;10.60;7.63;;;;;;;;;;5105583;28;20074;-59
2021/09/04 04:39:59;;;;;;;9.60;7.33;;;;;;;;;;5089010;28;20031;-59
2021/09/04 04:42:26;;;;;;;9.47;6.57;;;;;;;;;;5088501;28;20028;-59
2021/09/04 04:44:53;;;;;;;8.97;6.70;;;;;;;;;;5093079;28;20028;-59
2021/09/04 04:47:19;;;;;;;9.97;6.10;;;;;;;;;;5095216;28;20123;-59
2021/09/04 04:49:46;;;;;;;9.73;6.40;;;;;;;;;;5113979;28;20036;-59
2021/09/04 04:52:13;;;;;;;9.43;5.90;;;;;;;;;;5114231;28;20055;-59
2021/09/04 04:54:40;;;;;;;12.80;6.53;;;;;;;;;;5108629;28;20024;-59
2021/09/04 04:57:07;;;;;;;10.27;6.57;;;;;;;;;;5089134;28;20028;-60
2021/09/04 04:59:33;;;;;;;8.03;5.70;;;;;;;;;;5087747;28;20038;-59
2021/09/04 05:02:00;;;;;;;9.03;6.60;;;;;;;;;;5088143;28;20028;-59
2021/09/04 05:04:27;;;;;;;9.53;5.87;;;;;;;;;;5091116;28;20060;-60
2021/09/04 05:06:55;;;;;;;6.87;5.17;;;;;;;;;;5112182;28;20047;-59
2021/09/04 05:09:21;;;;;;;8.63;5.83;;;;;;;;;;5113769;28;20474;-59
2021/09/04 05:11:48;;;;;;;8.77;6.37;;;;;;;;;;5113841;28;20474;-59
2021/09/04 05:14:15;;;;;;;10.30;6.30;;;;;;;;;;5112512;28;20030;-59
2021/09/04 05:16:42;;;;;;;8.57;5.70;;;;;;;;;;5093239;28;20032;-59
2021/09/04 05:19:08;;;;;;;8.27;6.60;;;;;;;;;;5089225;28;20378;-60
2021/09/04 05:21:35;;;;;;;7.57;5.83;;;;;;;;;;5107408;28;20026;-59
2021/09/04 05:24:02;;;;;;;7.63;5.13;;;;;;;;;;5108409;28;21007;-59
2021/09/04 05:26:29;;;;;;;7.47;5.90;;;;;;;;;;5107763;28;20346;-59
2021/09/04 05:28:56;;;;;;;8.73;5.90;;;;;;;;;;5111176;28;20560;-59
2021/09/04 05:31:23;;;;;;;7.13;5.63;;;;;;;;;;5113380;28;20027;-59
2021/09/04 05:33:49;;;;;;;8.07;6.30;;;;;;;;;;5113344;28;20031;-59
2021/09/04 05:36:16;;;;;;;8.17;6.20;;;;;;;;;;5095358;28;20040;-59
2021/09/04 05:38:43;;;;;;;7.93;6.50;;;;;;;;;;5093129;28;20020;-59
2021/09/04 05:41:09;;;;;;;6.50;5.53;;;;;;;;;;5090075;28;20031;-59
2021/09/04 05:43:36;;;;;;;9.43;7.03;;;;;;;;;;5087516;28;20104;-59
2021/09/04 05:46:03;;;;;;;9.00;6.67;;;;;;;;;;5102335;28;20012;-60
2021/09/04 05:48:30;;;;;;;9.47;6.50;;;;;;;;;;5107806;28;20474;-59
2021/09/04 05:50:57;;;;;;;8.13;6.17;;;;;;;;;;5109984;28;20028;-59
2021/09/04 05:53:23;;;;;;;7.97;6.13;;;;;;;;;;5113111;28;20027;-59
2021/09/04 05:55:50;;;;;;;8.27;6.47;;;;;;;;;;5099579;28;20442;-59
2021/09/04 05:58:17;;;;;;;9.73;7.10;;;;;;;;;;5092824;28;20035;-59
2021/09/04 06:00:44;;;;;;;8.60;6.60;;;;;;;;;;5092380;28;20065;-59
2021/09/04 06:03:10;;;;;;;8.60;6.70;;;;;;;;;;5104760;28;20433;-60
2021/09/04 06:05:37;;;;;;;8.43;6.13;;;;;;;;;;5107709;28;20028;-59
2021/09/04 06:08:04;;;;;;;7.93;6.33;;;;;;;;;;5107634;28;20073;-59
2021/09/04 06:10:31;;;;;;;7.73;5.90;;;;;;;;;;5107564;28;20022;-59
2021/09/04 06:12:58;;;;;;;9.33;6.90;;;;;;;;;;5096235;28;20064;-59
2021/09/04 06:15:25;;;;;;;9.80;6.87;;;;;;;;;;5092237;28;20043;-59
2021/09/04 06:17:51;;;;;;;10.60;7.30;;;;;;;;;;5095293;28;20023;-59
2021/09/04 06:20:18;;;;;;;8.60;6.57;;;;;;;;;;5103888;28;20482;-59
2021/09/04 06:22:45;;;;;;;9.63;7.27;;;;;;;;;;5092507;28;20475;-59
2021/09/04 06:25:12;;;;;;;7.87;6.37;;;;;;;;;;5091127;28;20133;-59
2021/09/04 06:27:39;;;;;;;10.13;6.60;;;;;;;;;;5087318;28;20582;-60
2021/09/04 06:30:06;;;;;;;9.43;6.30;;;;;;;;;;5107011;28;20028;-59
2021/09/04 06:32:33;;;;;;;8.97;6.47;;;;;;;;;;5107534;28;20019;-59
2021/09/04 06:35:00;;;;;;;8.33;6.50;;;;;;;;;;5107162;28;20039;-59
2021/09/04 06:37:27;;;;;;;10.20;7.07;;;;;;;;;;5112590;28;20023;-59
2021/09/04 06:39:53;;;;;;;9.67;6.67;;;;;;;;;;5093106;28;20028;-59
2021/09/04 06:42:20;;;;;;;7.90;5.93;;;;;;;;;;5092269;28;20025;-59
2021/09/04 06:44:47;;;;;;;8.73;6.00;;;;;;;;;;5092319;28;20022;-59
2021/09/04 06:47:14;;;;;;;8.80;6.27;;;;;;;;;;5099967;28;20048;-59
2021/09/04 06:49:40;;;;;;;11.00;8.17;;;;;;;;;;5107151;28;20024;-59
2021/09/04 06:52:07;;;;;;;8.97;6.70;;;;;;;;;;5107250;28;20072;-59
2021/09/04 06:54:34;;;;;;;11.00;7.27;;;;;;;;;;5107298;28;20027;-59
2021/09/04 06:57:02;;;;;;;10.00;6.47;;;;;;;;;;5101562;28;20095;-59
2021/09/04 06:59:29;;;;;;;8.63;6.33;;;;;;;;;;5091276;28;20038;-59
2021/09/04 07:01:56;;;;;;;8.03;6.37;;;;;;;;;;5092093;28;20020;-59
2021/09/04 07:04:23;;;;;;;9.20;6.50;;;;;;;;;;5091829;28;20141;-60
2021/09/04 07:06:49;;;;;;;7.77;6.43;;;;;;;;;;5094847;28;20659;-59
2021/09/04 07:09:16;;;;;;;7.73;6.40;;;;;;;;;;5095814;28;20379;-59
2021/09/04 07:11:43;;;;;;;9.67;7.00;;;;;;;;;;5087827;28;20024;-59
2021/09/04 07:14:10;;;;;;;11.83;7.40;;;;;;;;;;5086810;28;20445;-59
2021/09/04 07:16:37;;;;;;;9.67;6.37;;;;;;;;;;5086831;28;20028;-59
2021/09/04 07:19:03;;;;;;;12.17;7.90;;;;;;;;;;5086999;28;20037;-59
2021/09/04 07:21:30;;;;;;;13.23;7.37;;;;;;;;;;5108757;28;20045;-59
2021/09/04 07:23:57;;;;;;;10.37;7.33;;;;;;;;;;5114809;28;20024;-59
2021/09/04 07:26:24;;;;;;;8.43;6.73;;;;;;;;;;5115783;28;20047;-59
2021/09/04 07:28:51;;;;;;;10.43;7.17;;;;;;;;;;5115278;28;20792;-59
2021/09/04 07:31:17;;;;;;;9.73;6.23;;;;;;;;;;5114933;28;20408;-59
2021/09/04 07:33:44;;;;;;;9.37;6.03;;;;;;;;;;5112501;28;20153;-59
2021/09/04 07:36:11;;;;;;;8.53;6.50;;;;;;;;;;5110370;28;20031;-59
2021/09/04 07:38:38;;;;;;;8.77;6.57;;;;;;;;;;5110509;28;20020;-59
2021/09/04 07:41:05;;;;;;;12.40;7.07;;;;;;;;;;5110360;28;20031;-60
2021/09/04 07:43:31;;;;;;;7.70;6.63;;;;;;;;;;5094225;28;20370;-59
2021/09/04 07:45:58;;;;;;;8.87;7.13;;;;;;;;;;5095084;28;20170;-59
2021/09/04 07:48:28;;;;;;;9.53;6.90;;;;;;;;;;5095034;28;20020;-59
2021/09/04 07:50:55;;;;;;;8.43;6.40;;;;;;;;;;5095028;28;20024;-59
2021/09/04 07:53:22;;;;;;;10.30;7.30;;;;;;;;;;5111522;28;20069;-59
2021/09/04 07:55:49;;;;;;;16.03;6.47;;;;;;;;;;5112302;28;20066;-59
2021/09/04 07:58:16;;;;;;;10.83;6.73;;;;;;;;;;5109773;28;20032;-60
2021/09/04 08:00:43;;;;;;;15.13;7.10;;;;;;;;;;5109849;28;20047;-60
2021/09/04 08:03:10;;;;;;;10.17;7.10;;;;;;;;;;5095051;28;20059;-59
2021/09/04 08:05:36;;;;;;;10.67;6.43;;;;;;;;;;5091255;28;20035;-59
2021/09/04 08:08:03;;;;;;;9.13;6.93;;;;;;;;;;5094754;28;20024;-59
2021/09/04 08:10:30;;;;;;;8.97;6.67;;;;;;;;;;5094806;28;20026;-59
2021/09/04 08:12:57;;;;;;;8.70;7.17;;;;;;;;;;5107078;28;20066;-59
2021/09/04 08:15:23;;;;;;;10.87;6.30;;;;;;;;;;5114953;28;20032;-59
2021/09/04 08:17:50;;;;;;;10.40;6.13;;;;;;;;;;5112519;28;20030;-59
2021/09/04 08:20:17;;;;;;;15.10;7.07;;;;;;;;;;5100710;28;20530;-59
2021/09/04 08:22:44;;;;;;;10.73;6.13;;;;;;;;;;5099524;28;20728;-59
2021/09/04 08:25:11;;;;;;;15.40;7.07;;;;;;;;;;5109669;28;20035;-59
2021/09/04 08:27:37;;;;;;;10.37;6.80;;;;;;;;;;5110411;28;20019;-59
2021/09/04 08:30:05;;;;;;;8.87;5.63;;;;;;;;;;5114568;28;20058;-59
2021/09/04 08:32:32;;;;;;;7.70;5.90;;;;;;;;;;5105744;28;20024;-59
2021/09/04 08:34:58;;;;;;;9.47;6.03;;;;;;;;;;5093404;28;20040;-59
2021/09/04 08:37:25;;;;;;;7.37;5.87;;;;;;;;;;5094418;28;20046;-59
2021/09/04 08:39:52;;;;;;;13.37;6.37;;;;;;;;;;5093260;28;20104;-59
2021/09/04 08:42:20;;;;;;;9.50;6.30;;;;;;;;;;5095037;28;20421;-59
2021/09/04 08:44:46;;;;;;;13.60;5.30;;;;;;;;;;5109196;28;20024;-59
2021/09/04 08:47:13;;;;;;;14.10;6.70;;;;;;;;;;5107398;28;20031;-59
2021/09/04 08:49:40;;;;;;;10.27;7.03;;;;;;;;;;5108846;28;20052;-60
2021/09/04 08:52:07;;;;;;;10.17;6.47;;;;;;;;;;5109060;28;20047;-59
2021/09/04 08:54:34;;;;;;;10.53;6.37;;;;;;;;;;5093633;28;20398;-59
2021/09/04 08:57:01;;;;;;;8.83;5.87;;;;;;;;;;5093628;28;20040;-59
2021/09/04 08:59:27;;;;;;;11.10;6.40;;;;;;;;;;5093603;28;20055;-59
2021/09/04 09:01:54;;;;;;;10.30;5.67;;;;;;;;;;5095876;28;20035;-59
2021/09/04 09:04:23;;;;;;;7.73;5.80;;;;;;;;;;5108818;28;20027;-59
2021/09/04 09:06:50;;;;;;;10.57;6.70;;;;;;;;;;5095128;28;20023;-59
2021/09/04 09:09:18;;;;;;;9.87;5.87;;;;;;;;;;5088293;28;20467;-59
2021/09/04 09:11:45;;;;;;;7.57;5.73;;;;;;;;;;5088107;28;20509;-59
2021/09/04 09:14:12;;;;;;;15.57;8.27;;;;;;;;;;5092708;28;20031;-59
2021/09/04 09:16:49;;;;;;;8.93;6.23;;;;;;;;;;5103777;28;20062;-59
2021/09/04 09:19:16;;;;;;;7.23;5.80;;;;;;;;;;5113528;28;20027;-59
2021/09/04 09:21:43;;;;;;;8.13;5.40;;;;;;;;;;5104240;28;20114;-59
2021/09/04 09:24:13;;;;;;;7.90;6.03;;;;;;;;;;5113644;28;20050;-59
2021/09/04 09:26:47;;;;;;;8.93;5.53;;;;;;;;;;5096928;28;20470;-59
2021/09/04 09:29:20;;;;;;;10.52;7.05;;;;;;;;;;5087996;28;20019;-59
2021/09/04 09:31:47;;;;;;;11.47;5.80;;;;;;;;;;5087700;28;20021;-59
2021/09/04 09:34:15;;;;;;;8.23;6.13;;;;;;;;;;5103465;28;20470;-59
2021/09/04 09:36:54;;;;;;;10.30;5.90;;;;;;;;;;5112565;28;20035;-59
2021/09/04 09:39:32;;;;;;;5.33;4.37;;;;;;;;;;5112741;28;20470;-62
2021/09/04 09:41:59;;;;;;;8.93;5.50;;;;;;;;;;5112790;28;20023;-59
2021/09/04 09:44:27;;;;;;;9.37;6.03;;;;;;;;;;5095614;28;20074;-59
2021/09/04 09:46:56;;;;;;;11.23;5.97;;;;;;;;;;5091422;28;20419;-59
2021/09/04 09:49:50;;;;;;;9.03;5.20;;;;;;;;;;5087040;28;20055;-59
2021/09/04 09:52:17;;;;;;;9.00;5.60;;;;;;;;;;5085003;28;20065;-59
2021/09/04 09:54:45;;;;;;;12.07;6.30;;;;;;;;;;5105862;28;20080;-59
2021/09/04 09:57:13;;;;;;;12.23;5.67;;;;;;;;;;5108067;28;20076;-59
2021/09/04 09:59:40;;;;;;;9.60;5.70;;;;;;;;;;5112530;28;20028;-59
2021/09/04 10:02:11;;;;;;;7.83;5.30;;;;;;;;;;5112811;28;20063;-59
2021/09/04 10:04:39;;;;;;;9.93;5.50;;;;;;;;;;5108969;28;20027;-59
2021/09/04 10:07:07;;;;;;;11.03;4.87;;;;;;;;;;5112114;28;20020;-59
2021/09/04 10:09:35;;;;;;;9.63;5.73;;;;;;;;;;5111419;28;20023;-59
2021/09/04 10:12:03;;;;;;;7.23;5.27;;;;;;;;;;5107105;28;20015;-59
2021/09/04 10:14:30;;;;;;;7.40;5.30;;;;;;;;;;5090498;28;20059;-59
2021/09/04 10:16:58;;;;;;;9.77;5.20;;;;;;;;;;5086874;28;20051;-59
2021/09/04 10:19:29;;;;;;;7.80;4.80;;;;;;;;;;5087301;28;20024;-59
2021/09/04 10:22:02;;;;;;;9.63;5.27;;;;;;;;;;5092225;28;20031;-59
2021/09/04 10:24:44;;;;;;;10.27;6.30;;;;;;;;;;5108081;28;20489;-59
2021/09/04 10:27:12;;;;;;;10.17;5.17;;;;;;;;;;5112621;28;20015;-59
2021/09/04 10:29:46;;;;;;;8.50;4.80;;;;;;;;;;5112453;28;20101;-60
2021/09/04 10:32:14;;;;;;;9.85;4.80;;;;;;;;;;5110568;28;20024;-59
2021/09/04 10:34:42;;;;;;;10.53;5.80;;;;;;;;;;5096629;28;20030;-59
2021/09/04 10:37:18;;;;;;;8.43;5.87;;;;;;;;;;5106927;28;20032;-59
2021/09/04 10:39:47;;;;;;;9.10;5.70;;;;;;;;;;5107114;28;20741;-59
2021/09/04 10:42:32;;;;;;;17.13;6.63;;;;;;;;;;5108703;28;20020;-59
2021/09/04 10:45:04;;;;;;;10.88;6.25;;;;;;;;;;5102963;28;20024;-58
2021/09/04 10:47:41;;;;;;;9.33;5.30;;;;;;;;;;5092059;28;20020;-59
2021/09/04 10:50:15;;;;;;;8.33;5.10;;;;;;;;;;5091827;28;20703;-59
2021/09/04 10:52:45;;;;;;;7.88;5.60;;;;;;;;;;5091932;28;20024;-59
2021/09/04 10:55:21;;;;;;;7.87;5.50;;;;;;;;;;5099264;28;20047;-59
2021/09/04 10:57:50;;;;;;;10.77;5.60;;;;;;;;;;5108042;28;20369;-59
2021/09/04 11:00:21;;;;;;;10.17;5.10;;;;;;;;;;5108960;28;20027;-59
2021/09/04 11:02:49;;;;;;;7.43;5.17;;;;;;;;;;5110804;28;20027;-59
2021/09/04 11:05:25;;;;;;;8.33;5.20;;;;;;;;;;5102424;28;20012;-59
2021/09/04 11:08:14;;;;;;;10.87;4.90;;;;;;;;;;5095848;28;20113;-58
2021/09/04 11:10:43;;;;;;;9.80;6.03;;;;;;;;;;5095571;28;20025;-58
2021/09/04 11:13:12;;;;;;;11.97;5.03;;;;;;;;;;5095654;28;20024;-58
2021/09/04 11:15:40;;;;;;;7.67;5.73;;;;;;;;;;5109458;28;20478;-58
2021/09/04 11:18:07;;;;;;;8.10;4.70;;;;;;;;;;5111306;28;20027;-59
2021/09/04 11:20:34;;;;;;;6.97;4.33;;;;;;;;;;5110536;28;20019;-59
2021/09/04 11:23:00;;;;;;;7.63;5.13;;;;;;;;;;5110455;28;20034;-59
2021/09/04 11:25:27;;;;;;;9.47;5.07;;;;;;;;;;5097849;28;20052;-59
2021/09/04 11:27:54;;;;;;;9.80;5.27;;;;;;;;;;5093469;28;20020;-59
2021/09/04 11:30:21;;;;;;;7.63;5.73;;;;;;;;;;5095327;28;20038;-58
2021/09/04 11:32:47;;;;;;;7.17;5.67;;;;;;;;;;5095672;28;20024;-59
2021/09/04 11:35:15;;;;;;;9.40;5.23;;;;;;;;;;5104968;28;20040;-58
2021/09/04 11:37:43;;;;;;;8.97;5.07;;;;;;;;;;5115394;28;20058;-59
2021/09/04 11:40:13;;;;;;;7.50;4.17;;;;;;;;;;5111093;28;20036;-59
2021/09/04 11:42:46;;;;;;;8.90;6.67;;;;;;;;;;5110047;28;20381;-59
2021/09/04 11:45:14;;;;;;;12.67;5.07;;;;;;;;;;5099650;28;20020;-59
2021/09/04 11:47:45;;;;;;;7.13;4.53;;;;;;;;;;5089665;28;20055;-58
2021/09/04 11:50:19;;;;;;;13.03;5.17;;;;;;;;;;5093351;28;20123;-59
2021/09/04 11:52:46;;;;;;;13.07;6.00;;;;;;;;;;5094899;28;20036;-58
2021/09/04 11:55:13;;;;;;;11.20;5.40;;;;;;;;;;5104017;28;20066;-59
2021/09/04 11:57:41;;;;;;;8.37;5.10;;;;;;;;;;5115390;28;20131;-58
2021/09/04 12:00:08;;;;;;;8.70;5.57;;;;;;;;;;5115103;28;20023;-58
2021/09/04 12:02:36;;;;;;;11.53;5.63;;;;;;;;;;5110483;28;20032;-59
2021/09/04 12:05:04;;;;;;;6.33;4.60;;;;;;;;;;5101489;28;20028;-59
2021/09/04 12:07:32;;;;;;;8.33;4.90;;;;;;;;;;5088614;28;20097;-59
2021/09/04 12:09:59;;;;;;;7.63;5.13;;;;;;;;;;5094798;28;20490;-59
2021/09/04 12:12:28;;;;;;;9.80;5.67;;;;;;;;;;5113113;28;20024;-58
2021/09/04 12:14:55;;;;;;;9.27;5.97;;;;;;;;;;5114824;28;20031;-59
2021/09/04 12:17:22;;;;;;;10.60;6.47;;;;;;;;;;5114737;28;20031;-58
2021/09/04 12:19:49;;;;;;;10.07;5.93;;;;;;;;;;5110377;28;20031;-59
2021/09/04 12:22:16;;;;;;;8.97;5.00;;;;;;;;;;5094283;28;20028;-59
2021/09/04 12:24:43;;;;;;;8.53;5.40;;;;;;;;;;5094400;28;20143;-58
2021/09/04 12:27:10;;;;;;;6.63;4.10;;;;;;;;;;5109284;28;20690;-58
2021/09/04 12:29:37;;;;;;;6.70;3.93;;;;;;;;;;5108850;28;20575;-59
2021/09/04 12:32:11;;;;;;;6.73;4.57;;;;;;;;;;5088222;28;20027;-59
2021/09/04 12:34:41;;;;;;;7.95;5.50;;;;;;;;;;5092129;28;20023;-59
2021/09/04 12:37:26;;;;;;;11.70;5.07;;;;;;;;;;5093398;28;20035;-58
2021/09/04 12:39:53;;;;;;;8.07;5.20;;;;;;;;;;5099580;28;20420;-58
2021/09/04 12:42:20;;;;;;;8.40;5.07;;;;;;;;;;5114382;28;20024;-58
2021/09/04 12:44:47;;;;;;;9.43;5.13;;;;;;;;;;5114213;28;20034;-59
2021/09/04 12:47:15;;;;;;;6.63;4.73;;;;;;;;;;5110036;28;20019;-58
2021/09/04 12:49:51;;;;;;;7.27;5.23;;;;;;;;;;5104855;28;20031;-58
2021/09/04 12:52:25;;;;;;;10.13;5.90;;;;;;;;;;5087986;28;20040;-59
2021/09/04 12:54:51;;;;;;;7.47;5.80;;;;;;;;;;5088008;28;20072;-59
2021/09/04 12:57:22;;;;;;;11.97;5.53;;;;;;;;;;5092165;28;20525;-58
2021/09/04 13:00:00;;;;;;;7.63;4.83;;;;;;;;;;5097106;28;20020;-58
2021/09/04 13:02:30;;;;;;;9.03;4.60;;;;;;;;;;5113893;28;20031;-59
2021/09/04 13:04:58;;;;;;;9.60;5.00;;;;;;;;;;5113858;28;20106;-58
2021/09/04 13:07:26;;;;;;;12.17;6.97;;;;;;;;;;5113715;28;20059;-58
2021/09/04 13:09:52;;;;;;;8.67;5.70;;;;;;;;;;5104551;28;20035;-58
2021/09/04 13:12:19;;;;;;;8.97;6.00;;;;;;;;;;5088187;28;20030;-59
2021/09/04 13:14:46;;;;;;;8.40;5.43;;;;;;;;;;5087707;28;20474;-58
2021/09/04 13:17:13;;;;;;;18.63;6.47;;;;;;;;;;5087821;28;20032;-58
2021/09/04 13:19:40;;;;;;;10.27;5.63;;;;;;;;;;5093116;28;20147;-58
2021/09/04 13:22:07;;;;;;;13.73;6.40;;;;;;;;;;5113249;28;20024;-58
2021/09/04 13:24:34;;;;;;;13.43;6.37;;;;;;;;;;5113754;28;20485;-58
2021/09/04 13:27:01;;;;;;;10.57;5.63;;;;;;;;;;5113230;28;20023;-61
2021/09/04 13:29:28;;;;;;;12.20;6.37;;;;;;;;;;5112923;28;20114;-61
2021/09/04 13:31:55;;;;;;;10.20;6.07;;;;;;;;;;5088386;28;20036;-62
2021/09/04 13:34:23;;;;;;;9.87;5.93;;;;;;;;;;5087317;28;20040;-61
2021/09/04 13:36:49;;;;;;;9.90;6.27;;;;;;;;;;5087221;28;20044;-61
2021/09/04 13:39:16;;;;;;;8.77;5.53;;;;;;;;;;5102254;28;20032;-59
2021/09/04 13:41:43;;;;;;;14.03;6.10;;;;;;;;;;5110957;28;20024;-59
2021/09/04 13:44:10;;;;;;;9.67;5.33;;;;;;;;;;5112895;28;20035;-58
2021/09/04 13:46:37;;;;;;;6.23;4.53;;;;;;;;;;5113057;28;20024;-59
2021/09/04 13:49:04;;;;;;;7.47;5.53;;;;;;;;;;5100187;28;20039;-59
2021/09/04 13:51:31;;;;;;;9.83;5.53;;;;;;;;;;5093002;28;20020;-58
2021/09/04 13:53:58;;;;;;;7.83;5.10;;;;;;;;;;5089075;28;20024;-59
2021/09/04 13:56:25;;;;;;;8.57;5.70;;;;;;;;;;5087075;28;20467;-59
2021/09/04 13:58:52;;;;;;;6.70;4.50;;;;;;;;;;5097140;28;20460;-59
2021/09/04 14:01:20;;;;;;;10.07;5.00;;;;;;;;;;5107358;28;20051;-59
2021/09/04 14:03:46;;;;;;;10.50;5.63;;;;;;;;;;5108460;28;20020;-59
2021/09/04 14:06:13;;;;;;;6.73;4.77;;;;;;;;;;5092550;28;20024;-59
2021/09/04 14:08:40;;;;;;;8.43;4.63;;;;;;;;;;5092482;28;20020;-59
2021/09/04 14:11:08;;;;;;;7.40;4.70;;;;;;;;;;5092511;28;20028;-59
2021/09/04 14:13:34;;;;;;;8.40;4.73;;;;;;;;;;5092463;28;20043;-59
2021/09/04 14:16:01;;;;;;;8.07;5.00;;;;;;;;;;5108492;28;20058;-59
2021/09/04 14:18:28;;;;;;;9.73;5.40;;;;;;;;;;5107184;28;20056;-59
2021/09/04 14:20:55;;;;;;;10.60;5.20;;;;;;;;;;5107035;28;20120;-59
2021/09/04 14:23:22;;;;;;;10.83;5.17;;;;;;;;;;5107297;28;20038;-59
2021/09/04 14:25:48;;;;;;;12.13;4.33;;;;;;;;;;5091500;28;20036;-59
2021/09/04 14:28:15;;;;;;;9.93;4.50;;;;;;;;;;5092185;28;20032;-59
2021/09/04 14:30:42;;;;;;;8.47;4.93;;;;;;;;;;5092331;28;20024;-59
2021/09/04 14:33:09;;;;;;;9.10;4.33;;;;;;;;;;5095929;28;20025;-59
2021/09/04 14:35:36;;;;;;;6.13;3.60;;;;;;;;;;5110860;28;20428;-59
2021/09/04 14:38:03;;;;;;;5.53;4.00;;;;;;;;;;5114365;28;20058;-59